Central Oregon RPC :: CEDARVILLE, CA A

liberation: 2020-06-08  07:00     latitude: 41.558500     longitude: -120.395100 74 birds
# LOFT PRING MILES ARRIVAL SPEED ToWin
1 STEELE LOFT AU18-CORP-4093 195.588 2020-06-08 11:00:39.476 1430.392 00:00:00
2 STEELE LOFT AU19-CORP-4039 195.588 2020-06-08 11:00:43.912 1429.953 00:00:04
3 ROCKY TOP AU18-CORP-3362 188.649 2020-06-08 10:52:47.936 1426.221 00:00:41
4 ROCKY TOP AU14-CORP-1542 188.649 2020-06-08 10:53:05.423 1424.438 00:00:58
5 STEELE LOFT AU19-CORP-4045 195.588 2020-06-08 11:02:24.636 1420.050 00:01:45
6 STEELE LOFT AU19-CORP-4008 195.588 2020-06-08 11:02:26.175 1419.900 00:01:47
7 STEELE LOFT AU17-PNW-5212 195.588 2020-06-08 11:02:27.079 1419.812 00:01:48
8 STEELE LOFT AU19-CORP-4024 195.588 2020-06-08 11:02:28.742 1419.650 00:01:49
9 STEELE LOFT AU19-CORP-4006 195.588 2020-06-08 11:02:31.237 1419.406 00:01:52
10 ROCKY TOP AU18-CORP-3334 188.649 2020-06-08 10:54:48.646 1414.001 00:02:41
11 TIM GRAVES AU15-AA-14507 187.408 2020-06-08 10:53:26.662 1412.917 00:02:51
12 TIM GRAVES AU15-AA-14510 187.408 2020-06-08 10:53:30.007 1412.580 00:02:54
13 TIM GRAVES AU17-SWWR-7335 187.408 2020-06-08 10:53:30.624 1412.517 00:02:55
14 STEELE LOFT AU19-CORP-4007 195.588 2020-06-08 11:06:25.394 1396.927 00:05:46
15 STEELE LOFT AU19-CORP-4022 195.588 2020-06-08 11:06:29.654 1396.525 00:05:50
16 TOPIGEONUSA AU19-CORP-4912 195.356 2020-06-08 11:07:06.262 1391.422 00:06:44
17 AMERICAN LOFT AU18-CORP-2549 193.125 2020-06-08 11:04:45.542 1388.709 00:07:08
18 ROCKY TOP AU18-CORP-3337 188.649 2020-06-08 10:59:10.846 1388.167 00:07:04
19 HENDRICKSON FAMILY LOFT AU19-CORP-4354 193.205 2020-06-08 11:04:59.290 1387.991 00:07:16
20 ROCKY TOP AU19-ARPU-29027 188.649 2020-06-08 10:59:15.829 1387.685 00:07:09
21 AMERICAN LOFT AU19-CORP-4673 193.125 2020-06-08 11:05:19.412 1385.514 00:07:42
22 AMERICAN LOFT AU19-CORP-4635 193.125 2020-06-08 11:05:20.082 1385.451 00:07:42
23 ROCKY TOP AU18-CORP-3386 188.649 2020-06-08 10:59:40.322 1385.321 00:07:33
24 ROCKY TOP AU18-CORP-3335 188.649 2020-06-08 10:59:41.623 1385.196 00:07:34
25 ROCKY TOP AU19-CORP-4482 188.649 2020-06-08 10:59:45.024 1384.868 00:07:38
26 ROCKY TOP AU18-CORP-3350 188.649 2020-06-08 11:00:02.521 1383.186 00:07:55
27 AMERICAN LOFT AU19-CORP-4652 193.125 2020-06-08 11:05:53.362 1382.326 00:08:16
28 RUETER FAMILY LOFT AU19-CORP-5359 223.008 2020-06-08 11:43:59.803 1382.036 00:09:36
29 ROCKY TOP AU19-ARPU-29022 188.649 2020-06-08 11:00:14.916 1381.997 00:08:08
30 RUETER FAMILY LOFT AU19-CORP-5261 223.008 2020-06-08 11:44:01.948 1381.862 00:09:38
31 RUETER FAMILY LOFT AU19-CORP-5290 223.008 2020-06-08 11:44:07.251 1381.432 00:09:43
32 ROCKY TOP AU19-CORP-4420 188.649 2020-06-08 11:00:52.782 1378.376 00:08:46
33 ROCKY TOP AU19-CORP-4421 188.649 2020-06-08 11:01:28.954 1374.935 00:09:22
34 RUETER FAMILY LOFT AU19-CORP-5291 223.008 2020-06-08 11:45:37.903 1374.125 00:11:14
35 AMERICAN LOFT AU19-CORP-4714 193.125 2020-06-08 11:08:09.033 1369.730 00:10:31
36 AMERICAN LOFT AU19-CORP-4735 193.125 2020-06-08 11:08:10.235 1369.619 00:10:33
37 HENDRICKSON FAMILY LOFT AU19-ARPU-29019 193.205 2020-06-08 11:08:31.724 1368.217 00:10:48
38 TOPIGEONUSA AU18-CORP-4253 195.356 2020-06-08 11:12:23.452 1362.278 00:12:01
39 HENDRICKSON FAMILY LOFT AU19-CORP-4360 193.205 2020-06-08 11:09:41.884 1361.810 00:11:58
40 TOPIGEONUSA AU17-VLJ-0728 195.356 2020-06-08 11:12:52.579 1359.662 00:12:30
41 HENDRICKSON FAMILY LOFT AU18-CORP-4028 193.205 2020-06-08 11:11:14.389 1353.453 00:13:31
42 STEELE LOFT AU19-AVI-19525 195.588 2020-06-08 11:15:28.055 1347.471 00:14:49
43 TOPIGEONUSA AU14-CORP-1078 195.356 2020-06-08 11:15:51.356 1343.828 00:15:29
44 RUETER FAMILY LOFT AU19-CORP-5296 223.008 2020-06-08 11:52:06.933 1343.625 00:17:43
45 RUETER FAMILY LOFT AU19-CORP-5286 223.008 2020-06-08 11:52:09.210 1343.450 00:17:45
46 AMERICAN LOFT AU19-CORP-4711 193.125 2020-06-08 11:14:28.704 1335.670 00:16:51
47 TOPIGEONUSA AU17-CAPT-0054 195.356 2020-06-08 11:18:11.348 1331.684 00:17:49
48 STEELE LOFT AU19-CORP-4009 195.588 2020-06-08 11:20:33.541 1321.141 00:19:54
49 RUETER FAMILY LOFT AU19-CORP-5293 223.008 2020-06-08 11:58:14.650 1316.015 00:23:51
50 HENDRICKSON FAMILY LOFT AU18-CORP-4046 193.205 2020-06-08 11:18:29.938 1315.446 00:20:46
51 RUETER FAMILY LOFT AU19-CORP-5265 223.008 2020-06-08 11:58:22.686 1315.424 00:23:59
52 AMERICAN LOFT AU18-CORP-2818 193.125 2020-06-08 11:18:54.433 1312.822 00:21:17
53 HENDRICKSON FAMILY LOFT AU18-CORP-4012 193.205 2020-06-08 11:19:02.645 1312.677 00:21:19
54 AMERICAN LOFT AU19-CORP-4706 193.125 2020-06-08 11:18:56.476 1312.650 00:21:19
55 HENDRICKSON FAMILY LOFT AU18-CORP-4007 193.205 2020-06-08 11:19:05.385 1312.446 00:21:22
56 ROCKY TOP AU18-CORP-3311 188.649 2020-06-08 11:14:36.395 1304.062 00:22:29
57 AMERICAN LOFT AU18-CORP-2550 193.125 2020-06-08 11:20:46.298 1303.436 00:23:09
58 RUETER FAMILY LOFT AU19-CORP-5456 223.008 2020-06-08 12:01:25.502 1302.127 00:27:02
59 TIM GRAVES AU17-CORP-0883 187.408 2020-06-08 11:14:48.307 1294.470 00:24:13
60 TIM GRAVES AU19-CORP-4220 187.408 2020-06-08 11:14:49.246 1294.390 00:24:14
61 RUETER FAMILY LOFT AU19-CORP-5250 223.008 2020-06-08 12:10:49.219 1262.767 00:36:25
62 AMERICAN LOFT AU19-CORP-4602 193.125 2020-06-08 11:32:01.221 1249.536 00:34:24
63 TIM GRAVES AU15-CORP-3070 187.408 2020-06-08 11:32:54.674 1208.589 00:42:19
64 TIM GRAVES AU19-CORP-4203 187.408 2020-06-08 11:51:15.465 1132.459 01:00:40
65 STEELE LOFT AU19-CORP-4004 195.588 2020-06-08 12:09:02.161 1113.900 01:08:23
66 TIM GRAVES AU14-TAR-0426 187.408 2020-06-08 12:20:15.657 1029.902 01:29:40
67 TIM GRAVES AU19-CORP-4232 187.408 2020-06-08 12:49:18.030 944.280 01:58:42
68 AMERICAN LOFT AU19-CORP-4681 193.125 2020-06-08 14:36:03.218 745.305 03:38:26
69 TIM GRAVES AU14-CORP-0072 187.408 2020-06-08 15:51:54.231 620.107 05:01:19
RUETER FAMILY LOFT AU19-CORP-5258 0 0000-00-00 00:00:00.000 0.000 00:00:00
RUETER FAMILY LOFT AU19-CORP-5488 0 0000-00-00 00:00:00.000 0.000 00:00:00
TIM GRAVES AU17-CORP-0834 0 0000-00-00 00:00:00.000 0.000 00:00:00
TIM GRAVES AU19-CORP-4209 0 0000-00-00 00:00:00.000 0.000 00:00:00
TOPIGEONUSA AU19-CORP-5140 0 0000-00-00 00:00:00.000 0.000 00:00:00